sensor_id;sensor_type;location;lat;lon;timestamp;P1;durP1;ratioP1;P2;durP2;ratioP2
18689;SDS011;9782;52.930;15.562;2023-04-24T05:16:02;18.83;;;15.43;;
18689;SDS011;9782;52.930;15.562;2023-04-24T05:18:30;17.73;;;15.23;;
18689;SDS011;9782;52.930;15.562;2023-04-24T05:20:57;17.67;;;15.03;;
18689;SDS011;9782;52.930;15.562;2023-04-24T05:23:24;16.97;;;14.00;;
18689;SDS011;9782;52.930;15.562;2023-04-24T05:25:51;17.57;;;14.00;;
18689;SDS011;9782;52.930;15.562;2023-04-24T05:28:18;18.83;;;15.13;;
18689;SDS011;9782;52.930;15.562;2023-04-24T05:30:44;20.20;;;14.90;;
18689;SDS011;9782;52.930;15.562;2023-04-24T05:33:13;19.60;;;15.33;;
18689;SDS011;9782;52.930;15.562;2023-04-24T05:35:40;17.87;;;14.67;;
18689;SDS011;9782;52.930;15.562;2023-04-24T05:38:10;19.90;;;15.43;;
18689;SDS011;9782;52.930;15.562;2023-04-24T05:40:37;21.03;;;16.37;;
18689;SDS011;9782;52.930;15.562;2023-04-24T05:43:04;18.90;;;15.27;;
18689;SDS011;9782;52.930;15.562;2023-04-24T05:45:31;18.30;;;15.17;;
18689;SDS011;9782;52.930;15.562;2023-04-24T05:48:01;18.20;;;14.93;;
18689;SDS011;9782;52.930;15.562;2023-04-24T05:50:29;19.77;;;15.20;;
18689;SDS011;9782;52.930;15.562;2023-04-24T05:52:56;22.40;;;15.20;;
18689;SDS011;9782;52.930;15.562;2023-04-24T05:55:23;17.97;;;14.90;;
18689;SDS011;9782;52.930;15.562;2023-04-24T05:57:50;18.33;;;15.47;;
18689;SDS011;9782;52.930;15.562;2023-04-24T06:00:18;18.90;;;14.45;;
18689;SDS011;9782;52.930;15.562;2023-04-24T06:02:45;16.50;;;14.68;;
18689;SDS011;9782;52.930;15.562;2023-04-24T06:05:12;17.33;;;13.52;;
18689;SDS011;9782;52.930;15.562;2023-04-24T06:07:41;40.00;;;15.52;;
18689;SDS011;9782;52.930;15.562;2023-04-24T06:10:08;21.00;;;13.30;;
18689;SDS011;9782;52.930;15.562;2023-04-24T06:12:36;20.02;;;13.27;;
18689;SDS011;9782;52.930;15.562;2023-04-24T06:15:03;15.88;;;13.13;;
18689;SDS011;9782;52.930;15.562;2023-04-24T06:17:30;16.65;;;13.50;;
18689;SDS011;9782;52.930;15.562;2023-04-24T06:19:58;15.10;;;13.13;;
18689;SDS011;9782;52.930;15.562;2023-04-24T06:22:25;16.13;;;12.90;;
18689;SDS011;9782;52.930;15.562;2023-04-24T06:24:53;15.98;;;12.25;;
18689;SDS011;9782;52.930;15.562;2023-04-24T06:27:20;15.57;;;12.48;;
18689;SDS011;9782;52.930;15.562;2023-04-24T06:29:47;16.95;;;12.52;;
18689;SDS011;9782;52.930;15.562;2023-04-24T06:32:19;14.73;;;12.48;;
18689;SDS011;9782;52.930;15.562;2023-04-24T06:34:46;16.02;;;12.82;;
18689;SDS011;9782;52.930;15.562;2023-04-24T06:37:13;16.35;;;12.23;;
18689;SDS011;9782;52.930;15.562;2023-04-24T06:39:41;13.68;;;12.27;;
18689;SDS011;9782;52.930;15.562;2023-04-24T06:42:09;18.50;;;12.43;;
18689;SDS011;9782;52.930;15.562;2023-04-24T06:44:36;17.80;;;12.88;;
18689;SDS011;9782;52.930;15.562;2023-04-24T06:47:06;20.90;;;17.73;;
18689;SDS011;9782;52.930;15.562;2023-04-24T06:49:33;90.43;;;65.78;;
18689;SDS011;9782;52.930;15.562;2023-04-24T06:52:00;57.88;;;47.58;;
18689;SDS011;9782;52.930;15.562;2023-04-24T06:54:27;17.13;;;15.32;;
18689;SDS011;9782;52.930;15.562;2023-04-24T06:56:55;19.42;;;13.85;;
18689;SDS011;9782;52.930;15.562;2023-04-24T06:59:23;15.02;;;13.13;;
18689;SDS011;9782;52.930;15.562;2023-04-24T07:01:50;15.95;;;12.40;;
18689;SDS011;9782;52.930;15.562;2023-04-24T07:04:17;16.80;;;12.68;;
18689;SDS011;9782;52.930;15.562;2023-04-24T07:06:44;15.50;;;12.27;;
18689;SDS011;9782;52.930;15.562;2023-04-24T07:09:12;16.58;;;12.40;;
18689;SDS011;9782;52.930;15.562;2023-04-24T07:11:40;19.88;;;13.70;;
18689;SDS011;9782;52.930;15.562;2023-04-24T07:14:07;16.77;;;12.80;;
18689;SDS011;9782;52.930;15.562;2023-04-24T07:16:36;15.43;;;13.15;;
18689;SDS011;9782;52.930;15.562;2023-04-24T07:19:03;15.50;;;11.90;;
18689;SDS011;9782;52.930;15.562;2023-04-24T07:21:30;18.08;;;13.68;;
18689;SDS011;9782;52.930;15.562;2023-04-24T07:23:57;17.58;;;13.13;;
18689;SDS011;9782;52.930;15.562;2023-04-24T07:26:24;16.02;;;12.43;;
18689;SDS011;9782;52.930;15.562;2023-04-24T07:28:52;16.10;;;14.38;;
18689;SDS011;9782;52.930;15.562;2023-04-24T07:31:19;14.57;;;12.52;;
18689;SDS011;9782;52.930;15.562;2023-04-24T07:33:47;14.60;;;12.23;;
18689;SDS011;9782;52.930;15.562;2023-04-24T07:36:15;17.00;;;12.48;;
18689;SDS011;9782;52.930;15.562;2023-04-24T07:38:44;19.55;;;12.63;;
18689;SDS011;9782;52.930;15.562;2023-04-24T07:41:11;13.57;;;11.95;;
18689;SDS011;9782;52.930;15.562;2023-04-24T07:43:38;12.32;;;11.10;;
18689;SDS011;9782;52.930;15.562;2023-04-24T07:46:05;17.58;;;11.43;;
18689;SDS011;9782;52.930;15.562;2023-04-24T07:48:32;19.77;;;11.13;;
18689;SDS011;9782;52.930;15.562;2023-04-24T07:51:01;11.82;;;10.60;;
18689;SDS011;9782;52.930;15.562;2023-04-24T07:53:27;18.13;;;13.93;;
18689;SDS011;9782;52.930;15.562;2023-04-24T07:55:55;17.42;;;11.13;;
18689;SDS011;9782;52.930;15.562;2023-04-24T07:58:22;52.08;;;13.25;;
18689;SDS011;9782;52.930;15.562;2023-04-24T08:00:49;16.02;;;10.60;;
18689;SDS011;9782;52.930;15.562;2023-04-24T08:03:16;16.40;;;10.20;;
18689;SDS011;9782;52.930;15.562;2023-04-24T08:05:44;11.80;;;8.88;;
18689;SDS011;9782;52.930;15.562;2023-04-24T08:08:13;7.43;;;6.72;;
18689;SDS011;9782;52.930;15.562;2023-04-24T08:10:40;9.45;;;7.63;;
18689;SDS011;9782;52.930;15.562;2023-04-24T08:13:07;8.65;;;7.45;;
18689;SDS011;9782;52.930;15.562;2023-04-24T08:15:36;8.90;;;7.82;;
18689;SDS011;9782;52.930;15.562;2023-04-24T08:18:03;14.27;;;8.48;;
18689;SDS011;9782;52.930;15.562;2023-04-24T08:20:30;10.32;;;7.47;;
18689;SDS011;9782;52.930;15.562;2023-04-24T08:22:57;10.55;;;6.85;;
18689;SDS011;9782;52.930;15.562;2023-04-24T08:25:25;9.05;;;7.68;;
18689;SDS011;9782;52.930;15.562;2023-04-24T08:27:52;12.15;;;9.02;;
18689;SDS011;9782;52.930;15.562;2023-04-24T08:30:20;15.07;;;9.50;;
18689;SDS011;9782;52.930;15.562;2023-04-24T08:32:47;11.77;;;6.70;;
18689;SDS011;9782;52.930;15.562;2023-04-24T08:35:14;8.65;;;6.68;;
18689;SDS011;9782;52.930;15.562;2023-04-24T08:37:41;9.45;;;6.28;;
18689;SDS011;9782;52.930;15.562;2023-04-24T08:40:10;10.77;;;6.97;;
18689;SDS011;9782;52.930;15.562;2023-04-24T08:42:42;9.57;;;7.10;;
18689;SDS011;9782;52.930;15.562;2023-04-24T08:45:10;9.07;;;6.50;;
18689;SDS011;9782;52.930;15.562;2023-04-24T08:47:38;7.90;;;6.40;;
18689;SDS011;9782;52.930;15.562;2023-04-24T08:50:07;10.88;;;6.65;;
18689;SDS011;9782;52.930;15.562;2023-04-24T08:52:35;10.18;;;6.22;;
18689;SDS011;9782;52.930;15.562;2023-04-24T08:55:02;9.52;;;6.53;;
18689;SDS011;9782;52.930;15.562;2023-04-24T08:57:29;8.20;;;5.95;;
18689;SDS011;9782;52.930;15.562;2023-04-24T09:00:00;5.63;;;4.95;;
18689;SDS011;9782;52.930;15.562;2023-04-24T09:02:28;6.10;;;4.22;;
18689;SDS011;9782;52.930;15.562;2023-04-24T09:04:56;6.00;;;4.53;;
18689;SDS011;9782;52.930;15.562;2023-04-24T09:07:24;9.70;;;4.22;;
18689;SDS011;9782;52.930;15.562;2023-04-24T09:09:53;6.55;;;4.30;;
18689;SDS011;9782;52.930;15.562;2023-04-24T09:12:21;5.63;;;4.13;;
18689;SDS011;9782;52.930;15.562;2023-04-24T09:14:48;6.70;;;5.15;;
18689;SDS011;9782;52.930;15.562;2023-04-24T09:17:17;8.38;;;6.70;;
18689;SDS011;9782;52.930;15.562;2023-04-24T09:19:44;10.60;;;8.10;;
18689;SDS011;9782;52.930;15.562;2023-04-24T09:22:11;13.93;;;8.82;;
18689;SDS011;9782;52.930;15.562;2023-04-24T09:24:38;7.78;;;6.28;;
18689;SDS011;9782;52.930;15.562;2023-04-24T09:27:05;8.68;;;5.93;;
18689;SDS011;9782;52.930;15.562;2023-04-24T09:29:33;25.38;;;5.88;;
18689;SDS011;9782;52.930;15.562;2023-04-24T09:32:06;4.93;;;4.40;;
18689;SDS011;9782;52.930;15.562;2023-04-24T09:34:47;8.27;;;5.57;;
18689;SDS011;9782;52.930;15.562;2023-04-24T09:37:27;5.82;;;5.03;;
18689;SDS011;9782;52.930;15.562;2023-04-24T09:40:07;12.32;;;4.80;;
18689;SDS011;9782;52.930;15.562;2023-04-24T09:42:35;5.80;;;4.78;;
18689;SDS011;9782;52.930;15.562;2023-04-24T09:45:02;9.30;;;6.05;;
18689;SDS011;9782;52.930;15.562;2023-04-24T09:47:36;13.60;;;8.35;;
18689;SDS011;9782;52.930;15.562;2023-04-24T09:50:11;8.68;;;5.95;;
18689;SDS011;9782;52.930;15.562;2023-04-24T09:52:40;15.65;;;7.40;;
18689;SDS011;9782;52.930;15.562;2023-04-24T09:55:12;8.70;;;7.15;;
18689;SDS011;9782;52.930;15.562;2023-04-24T09:57:52;9.45;;;7.18;;
18689;SDS011;9782;52.930;15.562;2023-04-24T10:00:23;9.48;;;6.57;;
18689;SDS011;9782;52.930;15.562;2023-04-24T10:02:59;9.40;;;6.97;;
18689;SDS011;9782;52.930;15.562;2023-04-24T10:05:28;7.85;;;7.05;;
18689;SDS011;9782;52.930;15.562;2023-04-24T10:07:56;10.45;;;7.18;;
18689;SDS011;9782;52.930;15.562;2023-04-24T10:10:24;10.77;;;7.45;;
18689;SDS011;9782;52.930;15.562;2023-04-24T10:12:51;8.48;;;7.57;;
18689;SDS011;9782;52.930;15.562;2023-04-24T10:15:19;7.00;;;5.88;;
18689;SDS011;9782;52.930;15.562;2023-04-24T10:17:47;18.15;;;6.53;;
18689;SDS011;9782;52.930;15.562;2023-04-24T10:20:19;6.78;;;5.55;;
18689;SDS011;9782;52.930;15.562;2023-04-24T10:22:48;10.45;;;7.50;;
18689;SDS011;9782;52.930;15.562;2023-04-24T10:25:16;12.40;;;8.27;;
18689;SDS011;9782;52.930;15.562;2023-04-24T10:27:46;6.25;;;4.90;;
18689;SDS011;9782;52.930;15.562;2023-04-24T10:30:14;6.93;;;5.38;;
18689;SDS011;9782;52.930;15.562;2023-04-24T10:32:41;6.13;;;4.97;;
18689;SDS011;9782;52.930;15.562;2023-04-24T10:35:08;6.22;;;4.40;;
18689;SDS011;9782;52.930;15.562;2023-04-24T10:37:39;6.53;;;4.72;;
18689;SDS011;9782;52.930;15.562;2023-04-24T10:40:09;6.78;;;4.18;;
18689;SDS011;9782;52.930;15.562;2023-04-24T10:42:39;5.43;;;3.95;;
18689;SDS011;9782;52.930;15.562;2023-04-24T10:45:15;24.33;;;6.43;;
18689;SDS011;9782;52.930;15.562;2023-04-24T10:47:43;6.38;;;3.97;;
18689;SDS011;9782;52.930;15.562;2023-04-24T10:50:17;5.25;;;4.15;;
18689;SDS011;9782;52.930;15.562;2023-04-24T10:52:46;12.50;;;5.35;;
18689;SDS011;9782;52.930;15.562;2023-04-24T10:55:16;5.97;;;3.85;;
18689;SDS011;9782;52.930;15.562;2023-04-24T10:58:05;5.35;;;3.75;;
18689;SDS011;9782;52.930;15.562;2023-04-24T11:00:32;11.93;;;4.63;;
18689;SDS011;9782;52.930;15.562;2023-04-24T11:03:03;5.88;;;4.10;;
18689;SDS011;9782;52.930;15.562;2023-04-24T11:05:48;3.92;;;3.53;;
18689;SDS011;9782;52.930;15.562;2023-04-24T11:08:22;7.75;;;4.28;;
18689;SDS011;9782;52.930;15.562;2023-04-24T11:10:55;5.45;;;3.88;;
18689;SDS011;9782;52.930;15.562;2023-04-24T11:13:27;6.78;;;4.00;;
18689;SDS011;9782;52.930;15.562;2023-04-24T11:16:15;3.78;;;3.47;;
18689;SDS011;9782;52.930;15.562;2023-04-24T11:18:49;4.22;;;3.50;;
18689;SDS011;9782;52.930;15.562;2023-04-24T11:21:19;5.13;;;3.90;;
18689;SDS011;9782;52.930;15.562;2023-04-24T11:23:49;6.75;;;4.40;;
18689;SDS011;9782;52.930;15.562;2023-04-24T11:26:17;7.82;;;5.55;;
18689;SDS011;9782;52.930;15.562;2023-04-24T11:28:48;5.65;;;3.53;;
18689;SDS011;9782;52.930;15.562;2023-04-24T11:31:35;11.15;;;7.50;;
18689;SDS011;9782;52.930;15.562;2023-04-24T11:34:07;8.60;;;6.13;;
18689;SDS011;9782;52.930;15.562;2023-04-24T11:36:35;25.55;;;19.67;;
18689;SDS011;9782;52.930;15.562;2023-04-24T11:39:04;115.88;;;74.88;;
18689;SDS011;9782;52.930;15.562;2023-04-24T11:41:31;14.18;;;11.75;;
18689;SDS011;9782;52.930;15.562;2023-04-24T11:43:59;8.60;;;7.32;;
18689;SDS011;9782;52.930;15.562;2023-04-24T11:46:27;5.60;;;3.70;;
18689;SDS011;9782;52.930;15.562;2023-04-24T11:48:55;5.80;;;3.00;;
18689;SDS011;9782;52.930;15.562;2023-04-24T11:51:22;2.83;;;2.60;;
18689;SDS011;9782;52.930;15.562;2023-04-24T11:53:50;4.90;;;2.88;;
18689;SDS011;9782;52.930;15.562;2023-04-24T11:56:18;4.65;;;3.20;;
18689;SDS011;9782;52.930;15.562;2023-04-24T11:58:47;3.05;;;2.60;;
18689;SDS011;9782;52.930;15.562;2023-04-24T12:01:14;3.28;;;2.58;;
18689;SDS011;9782;52.930;15.562;2023-04-24T12:03:41;3.80;;;3.40;;
18689;SDS011;9782;52.930;15.562;2023-04-24T12:06:13;9.32;;;7.82;;
18689;SDS011;9782;52.930;15.562;2023-04-24T12:08:40;4.80;;;4.07;;
18689;SDS011;9782;52.930;15.562;2023-04-24T12:11:07;10.50;;;7.10;;
18689;SDS011;9782;52.930;15.562;2023-04-24T12:13:36;7.35;;;3.67;;
18689;SDS011;9782;52.930;15.562;2023-04-24T12:16:03;7.93;;;2.90;;
18689;SDS011;9782;52.930;15.562;2023-04-24T12:18:31;7.38;;;4.43;;
18689;SDS011;9782;52.930;15.562;2023-04-24T12:21:17;27.48;;;11.73;;
18689;SDS011;9782;52.930;15.562;2023-04-24T12:23:45;16.58;;;9.32;;
18689;SDS011;9782;52.930;15.562;2023-04-24T12:26:12;12.98;;;8.60;;
18689;SDS011;9782;52.930;15.562;2023-04-24T12:28:46;9.73;;;3.72;;
18689;SDS011;9782;52.930;15.562;2023-04-24T12:31:14;6.32;;;3.00;;
18689;SDS011;9782;52.930;15.562;2023-04-24T12:33:41;7.35;;;2.40;;
18689;SDS011;9782;52.930;15.562;2023-04-24T12:36:09;3.28;;;2.35;;
18689;SDS011;9782;52.930;15.562;2023-04-24T12:38:37;6.18;;;2.80;;
18689;SDS011;9782;52.930;15.562;2023-04-24T12:41:06;7.13;;;2.70;;
18689;SDS011;9782;52.930;15.562;2023-04-24T12:43:34;2.95;;;2.33;;
18689;SDS011;9782;52.930;15.562;2023-04-24T12:46:03;2.97;;;2.13;;
18689;SDS011;9782;52.930;15.562;2023-04-24T12:48:31;7.30;;;4.18;;
18689;SDS011;9782;52.930;15.562;2023-04-24T12:50:58;5.88;;;3.42;;
18689;SDS011;9782;52.930;15.562;2023-04-24T12:53:27;9.00;;;3.40;;
18689;SDS011;9782;52.930;15.562;2023-04-24T12:55:56;4.25;;;2.38;;
18689;SDS011;9782;52.930;15.562;2023-04-24T12:58:23;4.03;;;2.78;;
18689;SDS011;9782;52.930;15.562;2023-04-24T13:00:50;6.03;;;2.40;;
18689;SDS011;9782;52.930;15.562;2023-04-24T13:03:19;3.00;;;2.00;;
18689;SDS011;9782;52.930;15.562;2023-04-24T13:05:47;3.05;;;1.30;;
18689;SDS011;9782;52.930;15.562;2023-04-24T13:08:14;16.88;;;9.10;;
18689;SDS011;9782;52.930;15.562;2023-04-24T13:10:41;4.70;;;3.28;;
18689;SDS011;9782;52.930;15.562;2023-04-24T13:13:08;12.05;;;6.90;;
18689;SDS011;9782;52.930;15.562;2023-04-24T13:15:35;4.63;;;1.80;;
18689;SDS011;9782;52.930;15.562;2023-04-24T13:18:02;2.38;;;1.52;;
18689;SDS011;9782;52.930;15.562;2023-04-24T13:20:31;2.65;;;1.00;;
18689;SDS011;9782;52.930;15.562;2023-04-24T13:23:00;4.13;;;1.40;;
18689;SDS011;9782;52.930;15.562;2023-04-24T13:25:27;4.68;;;1.00;;
18689;SDS011;9782;52.930;15.562;2023-04-24T13:27:54;3.65;;;1.10;;
18689;SDS011;9782;52.930;15.562;2023-04-24T13:30:21;1.88;;;1.00;;
18689;SDS011;9782;52.930;15.562;2023-04-24T13:32:48;2.90;;;1.08;;
18689;SDS011;9782;52.930;15.562;2023-04-24T13:35:15;1.70;;;0.93;;
18689;SDS011;9782;52.930;15.562;2023-04-24T13:37:44;1.50;;;0.95;;
18689;SDS011;9782;52.930;15.562;2023-04-24T13:40:11;3.67;;;1.35;;
18689;SDS011;9782;52.930;15.562;2023-04-24T13:42:37;1.95;;;1.20;;
18689;SDS011;9782;52.930;15.562;2023-04-24T13:45:05;3.42;;;1.10;;
18689;SDS011;9782;52.930;15.562;2023-04-24T13:47:32;2.58;;;1.15;;
18689;SDS011;9782;52.930;15.562;2023-04-24T13:50:00;6.15;;;1.92;;
18689;SDS011;9782;52.930;15.562;2023-04-24T13:52:27;4.45;;;2.55;;
18689;SDS011;9782;52.930;15.562;2023-04-24T13:54:56;2.30;;;1.10;;
18689;SDS011;9782;52.930;15.562;2023-04-24T13:57:23;3.60;;;1.48;;
18689;SDS011;9782;52.930;15.562;2023-04-24T13:59:50;5.85;;;1.60;;
18689;SDS011;9782;52.930;15.562;2023-04-24T14:02:17;1.83;;;1.10;;
18689;SDS011;9782;52.930;15.562;2023-04-24T14:04:44;1.58;;;1.00;;
18689;SDS011;9782;52.930;15.562;2023-04-24T14:07:12;1.35;;;1.13;;
18689;SDS011;9782;52.930;15.562;2023-04-24T14:09:39;2.25;;;1.02;;
18689;SDS011;9782;52.930;15.562;2023-04-24T14:12:07;2.35;;;0.80;;
18689;SDS011;9782;52.930;15.562;2023-04-24T14:14:34;2.33;;;0.95;;
18689;SDS011;9782;52.930;15.562;2023-04-24T14:17:01;1.33;;;0.70;;
18689;SDS011;9782;52.930;15.562;2023-04-24T14:19:28;2.35;;;0.75;;
18689;SDS011;9782;52.930;15.562;2023-04-24T14:21:55;0.98;;;0.88;;
18689;SDS011;9782;52.930;15.562;2023-04-24T14:24:23;3.17;;;1.88;;
18689;SDS011;9782;52.930;15.562;2023-04-24T14:26:50;5.35;;;3.95;;
18689;SDS011;9782;52.930;15.562;2023-04-24T14:29:18;3.28;;;0.95;;
18689;SDS011;9782;52.930;15.562;2023-04-24T14:31:45;2.72;;;1.67;;
18689;SDS011;9782;52.930;15.562;2023-04-24T14:34:14;4.32;;;1.55;;
18689;SDS011;9782;52.930;15.562;2023-04-24T14:36:41;1.77;;;1.10;;
18689;SDS011;9782;52.930;15.562;2023-04-24T14:39:08;1.17;;;1.00;;
18689;SDS011;9782;52.930;15.562;2023-04-24T14:41:36;1.08;;;0.80;;
18689;SDS011;9782;52.930;15.562;2023-04-24T14:44:04;2.63;;;1.20;;
18689;SDS011;9782;52.930;15.562;2023-04-24T14:46:32;1.65;;;0.88;;
18689;SDS011;9782;52.930;15.562;2023-04-24T14:48:59;2.20;;;1.00;;
18689;SDS011;9782;52.930;15.562;2023-04-24T14:51:27;3.15;;;1.02;;
18689;SDS011;9782;52.930;15.562;2023-04-24T14:53:54;1.02;;;0.82;;
18689;SDS011;9782;52.930;15.562;2023-04-24T14:56:22;1.55;;;1.25;;
18689;SDS011;9782;52.930;15.562;2023-04-24T14:58:49;2.17;;;1.50;;
18689;SDS011;9782;52.930;15.562;2023-04-24T15:01:16;5.05;;;1.50;;
18689;SDS011;9782;52.930;15.562;2023-04-24T15:03:45;5.03;;;3.28;;
18689;SDS011;9782;52.930;15.562;2023-04-24T15:06:12;4.82;;;3.40;;
18689;SDS011;9782;52.930;15.562;2023-04-24T15:08:39;9.43;;;5.75;;
18689;SDS011;9782;52.930;15.562;2023-04-24T15:11:06;11.68;;;6.30;;
18689;SDS011;9782;52.930;15.562;2023-04-24T15:13:33;16.73;;;8.52;;
18689;SDS011;9782;52.930;15.562;2023-04-24T15:16:00;17.02;;;7.85;;
18689;SDS011;9782;52.930;15.562;2023-04-24T15:18:27;11.75;;;5.85;;
18689;SDS011;9782;52.930;15.562;2023-04-24T15:20:56;13.05;;;6.60;;
18689;SDS011;9782;52.930;15.562;2023-04-24T15:23:23;9.25;;;5.93;;
18689;SDS011;9782;52.930;15.562;2023-04-24T15:25:50;14.38;;;7.03;;
18689;SDS011;9782;52.930;15.562;2023-04-24T15:28:17;17.13;;;7.60;;
18689;SDS011;9782;52.930;15.562;2023-04-24T15:30:44;11.82;;;4.75;;
18689;SDS011;9782;52.930;15.562;2023-04-24T15:33:11;8.60;;;5.22;;
18689;SDS011;9782;52.930;15.562;2023-04-24T15:35:38;9.73;;;4.65;;
18689;SDS011;9782;52.930;15.562;2023-04-24T15:38:06;7.82;;;5.30;;
18689;SDS011;9782;52.930;15.562;2023-04-24T15:40:33;11.32;;;6.40;;
18689;SDS011;9782;52.930;15.562;2023-04-24T15:43:00;5.63;;;3.35;;
18689;SDS011;9782;52.930;15.562;2023-04-24T15:45:27;15.30;;;6.50;;
18689;SDS011;9782;52.930;15.562;2023-04-24T15:47:55;6.78;;;4.15;;
18689;SDS011;9782;52.930;15.562;2023-04-24T15:50:22;6.45;;;4.75;;
18689;SDS011;9782;52.930;15.562;2023-04-24T15:52:49;6.15;;;3.67;;
18689;SDS011;9782;52.930;15.562;2023-04-24T15:55:17;5.25;;;2.83;;
18689;SDS011;9782;52.930;15.562;2023-04-24T15:57:44;9.13;;;4.90;;
18689;SDS011;9782;52.930;15.562;2023-04-24T16:00:12;9.25;;;4.82;;
18689;SDS011;9782;52.930;15.562;2023-04-24T16:02:40;5.22;;;3.00;;
18689;SDS011;9782;52.930;15.562;2023-04-24T16:05:07;11.75;;;6.07;;
18689;SDS011;9782;52.930;15.562;2023-04-24T16:07:36;2.75;;;2.30;;
18689;SDS011;9782;52.930;15.562;2023-04-24T16:10:04;3.33;;;2.38;;
18689;SDS011;9782;52.930;15.562;2023-04-24T16:12:33;4.63;;;2.78;;
18689;SDS011;9782;52.930;15.562;2023-04-24T16:15:00;6.07;;;3.88;;
18689;SDS011;9782;52.930;15.562;2023-04-24T16:17:27;20.70;;;14.10;;
18689;SDS011;9782;52.930;15.562;2023-04-24T16:19:54;11.25;;;8.38;;
18689;SDS011;9782;52.930;15.562;2023-04-24T16:22:21;6.38;;;3.00;;
18689;SDS011;9782;52.930;15.562;2023-04-24T16:24:48;16.60;;;10.20;;
18689;SDS011;9782;52.930;15.562;2023-04-24T16:27:14;28.40;;;15.63;;
18689;SDS011;9782;52.930;15.562;2023-04-24T16:29:43;19.73;;;14.13;;
18689;SDS011;9782;52.930;15.562;2023-04-24T16:32:10;23.65;;;13.13;;
18689;SDS011;9782;52.930;15.562;2023-04-24T16:34:37;9.65;;;6.57;;
18689;SDS011;9782;52.930;15.562;2023-04-24T16:37:04;6.93;;;4.40;;
18689;SDS011;9782;52.930;15.562;2023-04-24T16:39:31;9.20;;;6.30;;
18689;SDS011;9782;52.930;15.562;2023-04-24T16:41:58;8.23;;;6.10;;
18689;SDS011;9782;52.930;15.562;2023-04-24T16:44:26;6.63;;;4.10;;
18689;SDS011;9782;52.930;15.562;2023-04-24T16:46:54;6.47;;;4.60;;
18689;SDS011;9782;52.930;15.562;2023-04-24T16:49:21;7.38;;;4.85;;
18689;SDS011;9782;52.930;15.562;2023-04-24T16:51:48;8.73;;;7.30;;
18689;SDS011;9782;52.930;15.562;2023-04-24T16:54:15;5.43;;;4.38;;
18689;SDS011;9782;52.930;15.562;2023-04-24T16:56:42;3.80;;;3.15;;
18689;SDS011;9782;52.930;15.562;2023-04-24T16:59:10;3.25;;;2.67;;
18689;SDS011;9782;52.930;15.562;2023-04-24T17:01:37;4.80;;;3.83;;
18689;SDS011;9782;52.930;15.562;2023-04-24T17:04:05;5.15;;;4.55;;
18689;SDS011;9782;52.930;15.562;2023-04-24T17:06:32;4.93;;;2.88;;
18689;SDS011;9782;52.930;15.562;2023-04-24T17:08:59;10.63;;;5.93;;
18689;SDS011;9782;52.930;15.562;2023-04-24T17:11:26;5.57;;;2.40;;
18689;SDS011;9782;52.930;15.562;2023-04-24T17:13:53;4.70;;;2.88;;
18689;SDS011;9782;52.930;15.562;2023-04-24T17:16:20;4.45;;;3.25;;
18689;SDS011;9782;52.930;15.562;2023-04-24T17:18:47;8.63;;;3.65;;
18689;SDS011;9782;52.930;15.562;2023-04-24T17:21:16;5.50;;;3.25;;
18689;SDS011;9782;52.930;15.562;2023-04-24T17:23:43;10.52;;;5.00;;
18689;SDS011;9782;52.930;15.562;2023-04-24T17:26:10;6.38;;;4.43;;
18689;SDS011;9782;52.930;15.562;2023-04-24T17:28:37;5.95;;;3.38;;
18689;SDS011;9782;52.930;15.562;2023-04-24T17:31:04;7.45;;;4.85;;
18689;SDS011;9782;52.930;15.562;2023-04-24T17:33:31;8.43;;;4.32;;
18689;SDS011;9782;52.930;15.562;2023-04-24T17:35:58;6.22;;;4.47;;
18689;SDS011;9782;52.930;15.562;2023-04-24T17:38:27;4.65;;;3.60;;
18689;SDS011;9782;52.930;15.562;2023-04-24T17:40:55;5.00;;;3.42;;
18689;SDS011;9782;52.930;15.562;2023-04-24T17:43:22;4.45;;;4.05;;
18689;SDS011;9782;52.930;15.562;2023-04-24T17:45:49;6.78;;;4.95;;
18689;SDS011;9782;52.930;15.562;2023-04-24T17:48:19;12.50;;;6.00;;
18689;SDS011;9782;52.930;15.562;2023-04-24T17:50:46;11.07;;;6.30;;
18689;SDS011;9782;52.930;15.562;2023-04-24T17:53:14;10.40;;;5.10;;
18689;SDS011;9782;52.930;15.562;2023-04-24T17:55:44;17.30;;;11.30;;
18689;SDS011;9782;52.930;15.562;2023-04-24T17:58:11;15.85;;;10.07;;
18689;SDS011;9782;52.930;15.562;2023-04-24T18:00:39;13.40;;;11.45;;
18689;SDS011;9782;52.930;15.562;2023-04-24T18:03:07;22.58;;;18.67;;
18689;SDS011;9782;52.930;15.562;2023-04-24T18:05:34;17.17;;;14.70;;
18689;SDS011;9782;52.930;15.562;2023-04-24T18:08:03;15.70;;;13.18;;
18689;SDS011;9782;52.930;15.562;2023-04-24T18:10:31;13.82;;;10.05;;
18689;SDS011;9782;52.930;15.562;2023-04-24T18:13:01;8.30;;;5.93;;
18689;SDS011;9782;52.930;15.562;2023-04-24T18:15:29;7.13;;;5.60;;
18689;SDS011;9782;52.930;15.562;2023-04-24T18:17:56;7.65;;;5.50;;
18689;SDS011;9782;52.930;15.562;2023-04-24T18:20:23;8.10;;;7.30;;
18689;SDS011;9782;52.930;15.562;2023-04-24T18:22:50;6.63;;;5.75;;
18689;SDS011;9782;52.930;15.562;2023-04-24T18:25:17;5.75;;;5.15;;
18689;SDS011;9782;52.930;15.562;2023-04-24T18:27:50;9.88;;;7.47;;
18689;SDS011;9782;52.930;15.562;2023-04-24T18:30:18;15.00;;;8.65;;
18689;SDS011;9782;52.930;15.562;2023-04-24T18:32:47;13.80;;;9.90;;
18689;SDS011;9782;52.930;15.562;2023-04-24T18:35:14;9.43;;;7.32;;
18689;SDS011;9782;52.930;15.562;2023-04-24T18:37:43;10.37;;;7.07;;
18689;SDS011;9782;52.930;15.562;2023-04-24T18:40:10;14.40;;;7.22;;
18689;SDS011;9782;52.930;15.562;2023-04-24T18:42:38;16.17;;;11.90;;
18689;SDS011;9782;52.930;15.562;2023-04-24T18:45:05;13.23;;;10.10;;
18689;SDS011;9782;52.930;15.562;2023-04-24T18:47:34;14.37;;;11.40;;
18689;SDS011;9782;52.930;15.562;2023-04-24T18:50:01;12.77;;;9.40;;
18689;SDS011;9782;52.930;15.562;2023-04-24T18:52:29;9.83;;;7.90;;
18689;SDS011;9782;52.930;15.562;2023-04-24T18:54:56;8.93;;;7.83;;
18689;SDS011;9782;52.930;15.562;2023-04-24T18:57:23;8.93;;;6.17;;
18689;SDS011;9782;52.930;15.562;2023-04-24T18:59:50;10.27;;;8.97;;
18689;SDS011;9782;52.930;15.562;2023-04-24T19:02:17;9.67;;;6.13;;
18689;SDS011;9782;52.930;15.562;2023-04-24T19:04:45;8.70;;;5.87;;
18689;SDS011;9782;52.930;15.562;2023-04-24T19:07:12;10.73;;;6.30;;
18689;SDS011;9782;52.930;15.562;2023-04-24T19:09:39;11.73;;;9.00;;
18689;SDS011;9782;52.930;15.562;2023-04-24T19:12:06;8.80;;;6.97;;
18689;SDS011;9782;52.930;15.562;2023-04-24T19:14:33;9.60;;;7.30;;
18689;SDS011;9782;52.930;15.562;2023-04-24T19:17:00;10.13;;;8.13;;
18689;SDS011;9782;52.930;15.562;2023-04-24T19:19:27;12.00;;;8.70;;
18689;SDS011;9782;52.930;15.562;2023-04-24T19:21:57;14.47;;;7.57;;
18689;SDS011;9782;52.930;15.562;2023-04-24T19:24:24;11.70;;;8.63;;
18689;SDS011;9782;52.930;15.562;2023-04-24T19:26:53;6.70;;;5.50;;
18689;SDS011;9782;52.930;15.562;2023-04-24T19:29:20;9.83;;;5.03;;
18689;SDS011;9782;52.930;15.562;2023-04-24T19:31:47;6.03;;;4.47;;
18689;SDS011;9782;52.930;15.562;2023-04-24T19:34:14;7.27;;;5.27;;
18689;SDS011;9782;52.930;15.562;2023-04-24T19:36:41;5.37;;;4.27;;
18689;SDS011;9782;52.930;15.562;2023-04-24T19:39:10;6.40;;;4.47;;
18689;SDS011;9782;52.930;15.562;2023-04-24T19:41:37;8.80;;;5.03;;
18689;SDS011;9782;52.930;15.562;2023-04-24T19:44:04;8.77;;;4.40;;
18689;SDS011;9782;52.930;15.562;2023-04-24T19:46:31;5.60;;;4.17;;
18689;SDS011;9782;52.930;15.562;2023-04-24T19:48:58;6.40;;;4.00;;
18689;SDS011;9782;52.930;15.562;2023-04-24T19:51:25;6.30;;;3.23;;
18689;SDS011;9782;52.930;15.562;2023-04-24T19:53:52;4.73;;;2.80;;
18689;SDS011;9782;52.930;15.562;2023-04-24T19:56:21;4.83;;;3.10;;
18689;SDS011;9782;52.930;15.562;2023-04-24T19:58:48;5.67;;;3.03;;